Latest Weather Observations for Penrith

IDN60801

Issued at 5:32 pm EST Friday 3 July 2015 (issued every 30 minutes, with the page automatically refreshed every 10 minutes)

About weather observations | Map of weather stations | Latest weather observations for NSW | Other Formats
Station Details ID: 067113 Name: PENRITH LAKES AWS Lat: -33.72 Lon: 150.68 Height: 24.7 m
Data from the previous 72 hours. | See also: Recent months at Penrith
Date/Time
EST
Temp
°C
App
Temp
°C
Dew
Point
Rel
Hum
%
Delta-T
°C
Wind Press
QNH
hPa
Press
MSL
hPa
Rain
since 9 am
mm
Dir
 
Spd
km/h
Gust
km/h
Spd
kts
Gust
kts
03/05:30pm 10.3 8.6 4.2 66 2.7 N 2 2 1 1 - - 0.0
03/05:00pm 11.7 9.5 3.5 57 3.6 N 4 4 2 2 - - 0.0
03/04:30pm 13.4 11.3 3.8 52 4.3 N 4 6 2 3 - - 0.0
03/04:00pm 14.9 13.2 1.8 41 5.7 CALM 0 2 0 1 - - 0.0
03/03:30pm 15.3 12.9 2.1 41 5.9 NW 4 4 2 2 - - 0.0
03/03:00pm 15.3 12.8 1.8 40 5.9 N 4 6 2 3 - - 0.0
03/02:30pm 15.2 12.7 1.4 39 6.0 ENE 4 7 2 4 - - 0.0
03/02:00pm 14.7 12.2 1.6 41 5.7 S 4 6 2 3 - - 0.0
03/01:30pm 14.4 12.2 1.3 41 5.7 S 2 7 1 4 - - 0.0
03/01:00pm 14.1 11.2 1.7 43 5.4 SSE 6 11 3 6 - - 0.0
03/12:30pm 14.2 10.9 2.5 45 5.2 S 9 15 5 8 - - 0.0
03/12:00pm 13.9 10.2 2.2 45 5.1 S 11 19 6 10 - - 0.0
03/11:30am 13.9 10.6 2.5 46 5.0 SSW 9 17 5 9 - - 0.0
03/11:00am 13.2 9.0 1.8 46 4.9 SSW 13 20 7 11 - - 0.0
03/10:30am 12.9 9.0 1.3 45 4.9 SSW 11 19 6 10 - - 0.0
03/10:00am 12.3 8.0 1.0 46 4.8 SW 13 19 7 10 - - 0.0
03/09:30am 11.4 8.2 0.5 47 4.5 SSW 7 15 4 8 - - 0.0
03/09:00am 9.9 6.7 -0.3 49 4.1 S 6 7 3 4 - - 0.0
03/08:30am 8.7 5.6 -0.1 54 3.5 S 6 9 3 5 - - 0.0
03/08:00am 6.8 3.5 -0.2 61 2.7 SSE 7 9 4 5 - - 0.0
03/07:30am 6.3 3.0 -0.9 60 2.7 SSW 6 7 3 4 - - 0.0
03/07:00am 6.2 2.8 -1.7 57 2.9 SSW 6 7 3 4 - - 0.0
03/06:30am 5.8 2.4 -2.0 57 2.8 SSW 6 9 3 5 - - 0.0
03/06:00am 6.4 2.8 -2.2 54 3.1 S 7 13 4 7 - - 0.0
03/05:30am 6.1 2.6 -2.5 54 3.1 S 6 9 3 5 - - 0.0
03/05:00am 7.6 3.2 -2.7 48 3.8 SSW 11 20 6 11 - - 0.0
03/04:30am 7.9 2.7 -3.0 46 4.0 SSW 15 24 8 13 - - 0.0
03/04:00am 6.8 3.1 -2.6 51 3.4 S 7 9 4 5 - - 0.0
03/03:30am 7.8 3.0 -2.2 49 3.7 SW 13 17 7 9 - - 0.0
03/03:00am 7.3 3.3 -1.9 52 3.4 SSW 9 17 5 9 - - 0.0
03/02:30am 7.8 3.5 -1.7 51 3.6 SW 11 15 6 8 - - 0.0
03/02:00am 6.4 3.1 -1.0 59 2.8 S 6 9 3 5 - - 0.0
03/01:30am 7.6 3.8 -1.1 54 3.3 SSW 9 13 5 7 - - 0.0
03/01:00am 7.8 4.0 -0.7 55 3.3 S 9 13 5 7 - - 0.0
03/12:30am 8.2 4.1 -0.3 55 3.3 SSW 11 15 6 8 - - 0.0
03/12:00am 7.5 4.4 0.3 60 2.8 SSE 6 7 3 4 - - 0.0
 
Date/Time
EST
Temp
°C
App
Temp
°C
Dew
Point
Rel
Hum
%
Delta-T
°C
Wind Press
QNH
hPa
Press
MSL
hPa
Rain
since 9 am
mm
Dir
 
Spd
km/h
Gust
km/h
Spd
kts
Gust
kts
02/11:30pm 7.4 4.3 0.4 61 2.8 SSE 6 9 3 5 - - 0.0
02/11:00pm 8.4 5.4 0.6 58 3.1 SSW 6 9 3 5 - - 0.0
02/10:30pm 9.1 6.6 1.8 60 3.0 S 4 7 2 4 - - 0.0
02/10:00pm 9.3 6.2 1.2 57 3.3 SSE 7 11 4 6 - - 0.0
02/09:30pm 10.0 6.6 1.6 56 3.5 S 9 11 5 6 - - 0.0
02/09:00pm 10.7 6.5 1.5 53 3.9 SSW 13 17 7 9 - - 0.0
02/08:30pm 11.1 6.9 1.6 52 4.0 SSW 13 20 7 11 - - 0.0
02/08:00pm 11.3 6.7 1.8 52 4.0 SW 15 24 8 13 - - 0.0
02/07:30pm 12.1 5.1 1.7 49 4.4 WSW 28 35 15 19 - - 0.0
02/07:00pm 12.2 6.6 1.2 47 4.6 SW 20 32 11 17 - - 0.0
02/06:30pm 12.7 6.3 0.8 44 5.0 WSW 24 37 13 20 - - 0.0
02/06:00pm 12.4 7.1 2.0 49 4.5 WSW 19 28 10 15 - - 0.0
02/05:30pm 13.4 6.9 2.9 49 4.7 WSW 26 44 14 24 - - 0.0
02/05:27pm 13.6 7.9 2.8 48 4.8 SW 22 44 12 24 - - 0.0
02/05:00pm 13.9 10.9 4.2 52 4.4 SW 9 17 5 9 - - 0.0
02/04:30pm 13.9 10.9 3.9 51 4.6 W 9 13 5 7 - - 0.0
02/04:00pm 14.6 11.2 4.0 49 4.9 W 11 20 6 11 - - 0.0
02/03:30pm 16.1 11.6 4.2 45 5.6 WNW 17 26 9 14 - - 0.0
02/03:00pm 16.1 12.3 3.9 44 5.7 WNW 13 24 7 13 - - 0.0
02/02:30pm 16.9 13.9 3.9 42 6.1 WNW 9 15 5 8 - - 0.0
02/02:00pm 16.4 12.2 3.8 43 5.8 W 15 24 8 13 - - 0.0
02/01:30pm 16.4 11.8 3.8 43 5.8 W 17 26 9 14 - - 0.0
02/01:00pm 15.9 10.3 3.7 44 5.6 WSW 22 33 12 18 - - 0.0
02/12:30pm 16.0 11.1 4.1 45 5.5 SW 19 37 10 20 - - 0.0
02/12:00pm 15.3 10.4 4.1 47 5.2 SW 19 33 10 18 - - 0.0
02/11:30am 14.6 10.4 4.0 49 4.9 SW 15 33 8 18 - - 0.0
02/11:00am 13.8 10.9 4.4 53 4.3 W 9 24 5 13 - - 0.0
02/10:30am 11.4 8.9 6.5 72 2.3 NNW 9 15 5 8 - - 0.0
02/10:00am 10.3 8.2 5.9 74 2.0 NE 6 7 3 4 - - 0.0
02/09:30am 8.0 6.1 6.6 91 0.6 NNE 6 7 3 4 - - 0.0
02/09:00am 6.1 3.8 5.7 97 0.2 NNE 7 9 4 5 - - 0.2
02/08:30am 4.9 2.0 4.5 97 0.2 N 9 13 5 7 - - 0.2
02/08:00am 4.6 2.6 4.2 97 0.2 NNW 4 7 2 4 - - 0.2
02/07:30am 3.8 2.4 3.4 97 0.2 CALM 0 2 0 1 - - 0.2
02/07:00am 3.1 1.5 2.7 97 0.2 CALM 0 4 0 2 - - 0.2
02/06:30am 3.2 0.9 2.8 97 0.2 WNW 4 6 2 3 - - 0.2
02/06:00am 3.4 1.9 3.0 97 0.2 CALM 0 0 0 0 - - 0.2
02/05:30am 3.4 1.9 2.8 96 0.2 CALM 0 0 0 0 - - 0.2
02/05:00am 2.9 1.3 2.3 96 0.2 CALM 0 6 0 3 - - 0.0
02/04:30am 2.4 0.3 1.8 96 0.2 N 2 7 1 4 - - 0.0
02/04:00am 3.6 1.7 2.9 95 0.3 WNW 2 4 1 2 - - 0.0
02/03:30am 3.6 2.1 2.9 95 0.3 CALM 0 0 0 0 - - 0.0
02/03:00am 3.9 2.4 3.2 95 0.3 CALM 0 0 0 0 - - 0.0
02/02:30am 4.3 2.9 3.6 95 0.3 CALM 0 2 0 1 - - 0.0
02/02:00am 4.2 2.8 3.5 95 0.3 CALM 0 0 0 0 - - 0.0
02/01:30am 4.8 3.1 3.9 94 0.4 SSW 2 4 1 2 - - 0.0
02/01:00am 4.9 3.6 3.9 93 0.4 CALM 0 0 0 0 - - 0.0
02/12:30am 5.1 3.8 4.1 93 0.4 CALM 0 0 0 0 - - 0.0
02/12:00am 5.2 2.8 4.3 94 0.4 SSW 6 7 3 4 - - 0.0
 
Date/Time
EST
Temp
°C
App
Temp
°C
Dew
Point
Rel
Hum
%
Delta-T
°C
Wind Press
QNH
hPa
Press
MSL
hPa
Rain
since 9 am
mm
Dir
 
Spd
km/h
Gust
km/h
Spd
kts
Gust
kts
01/11:30pm 5.3 2.7 4.3 93 0.4 S 7 9 4 5 - - 0.0
01/11:00pm 6.0 4.1 5.0 93 0.4 SSE 4 6 2 3 - - 0.0
01/10:30pm 6.0 3.7 5.0 93 0.4 SSW 6 7 3 4 - - 0.0
01/10:00pm 6.7 4.5 5.5 92 0.5 SSW 6 7 3 4 - - 0.0
01/09:30pm 7.9 7.1 6.4 90 0.7 CALM 0 2 0 1 - - 0.0
01/09:00pm 7.8 6.6 6.4 91 0.6 SW 2 6 1 3 - - 0.0
01/08:30pm 8.0 6.1 6.9 93 0.5 ESE 6 7 3 4 - - 0.0
01/08:00pm 8.8 8.3 7.7 93 0.5 CALM 0 0 0 0 - - 0.0
01/07:30pm 8.9 8.4 7.7 92 0.6 CALM 0 0 0 0 - - 0.0
01/07:00pm 9.1 8.5 7.4 89 0.8 CALM 0 0 0 0 - - 0.0
01/06:30pm 10.1 9.7 8.2 88 0.9 CALM 0 0 0 0 - - 0.0
01/06:00pm 10.7 10.4 8.5 86 1.1 CALM 0 0 0 0 - - 0.0
01/05:30pm 11.4 10.7 8.4 82 1.5 N 2 4 1 2 - - 0.0
01/05:00pm 13.2 12.3 7.9 70 2.6 N 2 4 1 2 - - 0.0
01/04:30pm 14.4 13.3 8.6 68 2.9 NW 4 6 2 3 - - 0.0
01/04:00pm 15.9 15.6 8.6 62 3.7 CALM 0 2 0 1 - - 0.0
01/03:30pm 15.4 14.3 8.6 64 3.5 WNW 4 7 2 4 - - 0.0
01/03:00pm 15.4 13.9 9.1 66 3.2 NW 7 9 4 5 - - 0.0
01/02:30pm 15.2 12.9 9.1 67 3.1 NNW 11 13 6 7 - - 0.0
01/02:00pm 15.2 13.0 9.3 68 3.0 NNW 11 13 6 7 - - 0.0
01/01:30pm 15.3 13.4 9.0 66 3.2 N 9 13 5 7 - - 0.0
01/01:00pm 14.8 12.9 9.0 68 3.0 N 9 15 5 8 - - 0.0
01/12:30pm 14.9 13.6 9.3 69 2.9 NNW 6 9 3 5 - - 0.0
01/12:00pm 14.3 12.7 8.9 70 2.7 NNW 7 11 4 6 - - 0.0
01/11:30am 13.7 12.0 8.5 71 2.6 N 7 11 4 6 - - 0.0
01/11:00am 13.8 13.0 9.5 75 2.2 ENE 4 7 2 4 - - 0.0
01/10:30am 11.7 10.8 9.1 84 1.3 SSE 4 6 2 3 - - 0.0
01/10:00am 11.4 10.6 9.5 88 1.0 S 4 6 2 3 - - 0.0
01/09:30am 11.0 10.0 10.4 96 0.3 SSW 6 7 3 4 - - 0.0
01/09:00am 10.7 9.6 10.1 96 0.3 S 6 7 3 4 - - 2.0
01/08:30am 10.2 9.4 9.6 96 0.3 NNE 4 4 2 2 - - 2.0
01/08:00am 10.1 9.6 9.5 96 0.3 W 2 4 1 2 - - 2.0
01/07:30am 9.8 8.9 9.2 96 0.3 SW 4 6 2 3 - - 2.0
01/07:00am 9.7 9.1 9.1 96 0.3 E 2 2 1 1 - - 2.0
01/06:30am 10.2 10.1 9.6 96 0.3 CALM 0 0 0 0 - - 2.0
01/06:00am 10.1 10.0 9.5 96 0.3 CALM 0 0 0 0 - - 2.0
01/05:30am 10.4 10.4 9.8 96 0.3 CALM 0 0 0 0 - - 2.0
01/05:00am 10.4 10.0 9.8 96 0.3 N 2 4 1 2 - - 2.0
01/04:30am 10.6 9.9 10.0 96 0.3 N 4 4 2 2 - - 1.8
01/04:00am 10.8 9.8 10.2 96 0.3 NNE 6 6 3 3 - - 1.2
01/03:30am 10.7 9.6 10.1 96 0.3 NNE 6 7 3 4 - - 0.8
01/03:00am 10.6 9.5 9.8 95 0.4 N 6 7 3 4 - - 0.2
01/02:30am 10.6 9.8 9.8 95 0.4 N 4 6 2 3 - - 0.0
01/02:00am 10.2 9.3 9.4 95 0.4 NNE 4 6 2 3 - - 0.0
01/01:30am 10.5 10.1 9.6 94 0.5 N 2 7 1 4 - - 0.0
01/01:00am 10.5 10.1 9.6 94 0.5 W 2 6 1 3 - - 0.0
01/12:30am 10.2 9.3 9.1 93 0.5 SE 4 6 2 3 - - 0.0
01/12:00am 10.8 10.4 9.7 93 0.6 SSW 2 4 1 2 - - 0.0
 
Date/Time
EST
Temp
°C
App
Temp
°C
Dew
Point
Rel
Hum
%
Delta-T
°C
Wind Press
QNH
hPa
Press
MSL
hPa
Rain
since 9 am
mm
Dir
 
Spd
km/h
Gust
km/h
Spd
kts
Gust
kts
30/11:30pm 10.8 10.7 9.4 91 0.7 CALM 0 2 0 1 - - 0.0
30/11:00pm 11.1 10.3 9.7 91 0.7 SSE 4 7 2 4 - - 0.0
30/10:30pm 11.4 11.1 10.0 91 0.7 W 2 6 1 3 - - 0.0
30/10:00pm 11.7 11.5 10.4 92 0.7 SE 2 4 1 2 - - 0.0
30/09:30pm 11.5 10.8 10.1 91 0.7 SSW 4 4 2 2 - - 0.0
30/09:00pm 11.7 11.0 10.1 90 0.8 SSE 4 6 2 3 - - 0.0
30/08:30pm 11.9 11.3 10.3 90 0.8 SSE 4 6 2 3 - - 0.0
30/08:00pm 12.1 11.5 10.5 90 0.8 SSW 4 6 2 3 - - 0.0
30/07:30pm 12.5 11.5 11.1 91 0.7 SSW 7 9 4 5 - - 0.0
30/07:00pm 12.4 11.9 10.8 90 0.8 WSW 4 4 2 2 - - 0.0
30/06:30pm 13.0 13.4 11.2 89 0.9 CALM 0 0 0 0 - - 0.0
30/06:00pm 13.4 13.4 11.1 86 1.2 SSE 2 2 1 1 - - 0.0

Other Formats:

Comma delimited format used in spreadsheet applications
http://www.bom.gov.au/fwo/IDN60801/IDN60801.94763.axf

JavaScript Object Notation format (JSON) in row-major order
http://www.bom.gov.au/fwo/IDN60801/IDN60801.94763.json